Time;durP1;ratioP1;P1;durP2;ratioP2;P2;SDS_P1;SDS_P2;PMS_P1;PMS_P2;Temp;Humidity;BMP_temperature;BMP_pressure;BME280_temperature;BME280_humidity;BME280_pressure;Samples;Min_cycle;Max_cycle;Signal;HPM_P1;HPM_P2
2024/03/04 00:00:16;;;;;;;11.20;9.70;;;11.60;99.90;;;;;;5132862;22;20488;-45
2024/03/04 00:02:45;;;;;;;13.57;10.10;;;11.60;99.90;;;;;;5066682;28;20853;-46
2024/03/04 00:05:16;;;;;;;14.53;10.57;;;11.60;99.90;;;;;;5068702;28;20473;-46
2024/03/04 00:07:46;;;;;;;11.80;9.30;;;11.60;99.90;;;;;;5078152;28;20462;-45
2024/03/04 00:10:18;;;;;;;13.00;9.43;;;11.60;99.90;;;;;;5073332;28;20444;-45
2024/03/04 00:12:47;;;;;;;11.37;9.13;;;11.60;99.90;;;;;;5079199;28;20459;-44
2024/03/04 00:15:17;;;;;;;10.97;9.10;;;11.60;99.90;;;;;;5079729;28;20451;-45
2024/03/04 00:17:49;;;;;;;13.17;10.07;;;11.60;99.90;;;;;;5078594;28;20544;-46
2024/03/04 00:20:18;;;;;;;11.13;8.63;;;11.60;99.90;;;;;;5076520;28;20469;-45
2024/03/04 00:22:47;;;;;;;13.93;9.60;;;11.60;99.90;;;;;;5077708;28;20556;-45
2024/03/04 00:25:18;;;;;;;10.90;8.57;;;11.60;99.90;;;;;;5079287;28;20462;-46
2024/03/04 00:27:48;;;;;;;12.73;10.33;;;11.60;99.90;;;;;;5076302;28;20889;-46
2024/03/04 00:30:18;;;;;;;11.80;9.93;;;11.60;99.90;;;;;;5079021;28;20564;-45
2024/03/04 00:32:47;;;;;;;12.80;10.10;;;11.60;99.90;;;;;;5078955;28;20457;-45
2024/03/04 00:35:19;;;;;;;12.77;9.73;;;11.60;99.90;;;;;;5071825;28;20464;-45
2024/03/04 00:37:48;;;;;;;10.53;8.83;;;11.60;99.90;;;;;;5076435;28;20526;-45
2024/03/04 00:40:18;;;;;;;9.40;7.50;;;11.60;99.90;;;;;;5076982;28;20441;-46
2024/03/04 00:42:47;;;;;;;12.23;8.97;;;11.60;99.90;;;;;;5070696;28;20535;-46
2024/03/04 00:45:15;;;;;;;16.33;9.77;;;11.60;99.90;;;;;;5076916;28;20836;-45
2024/03/04 00:47:45;;;;;;;11.03;9.53;;;11.60;99.90;;;;;;5078408;28;20552;-46
2024/03/04 00:50:16;;;;;;;10.37;8.67;;;11.60;99.90;;;;;;5069976;28;20470;-46
2024/03/04 00:52:47;;;;;;;11.30;7.90;;;11.60;99.90;;;;;;5073878;28;20464;-45
2024/03/04 00:55:17;;;;;;;13.67;8.40;;;11.60;99.90;;;;;;5075639;28;20511;-46
2024/03/04 00:57:47;;;;;;;15.07;10.43;;;11.60;99.90;;;;;;5074008;28;21070;-46
2024/03/04 01:00:17;;;;;;;12.70;9.10;;;11.60;99.90;;;;;;5039983;28;1117218;-46
2024/03/04 01:02:45;;;;;;;10.93;9.03;;;11.60;99.90;;;;;;5072379;28;20477;-45
2024/03/04 01:05:13;;;;;;;12.87;9.70;;;11.60;99.90;;;;;;5072199;28;20505;-45
2024/03/04 01:07:42;;;;;;;12.63;8.10;;;11.60;99.90;;;;;;5080107;28;20491;-45
2024/03/04 01:10:11;;;;;;;12.43;9.80;;;11.60;99.90;;;;;;5076972;28;21005;-45
2024/03/04 01:12:41;;;;;;;11.53;8.30;;;11.60;99.90;;;;;;5056871;28;20470;-45
2024/03/04 01:15:12;;;;;;;10.53;8.00;;;11.60;99.90;;;;;;5077842;28;20454;-45
2024/03/04 01:17:41;;;;;;;9.17;7.50;;;11.60;99.90;;;;;;5079372;28;20455;-45
2024/03/04 01:20:13;;;;;;;10.60;8.00;;;11.60;99.90;;;;;;5071399;28;20529;-44
2024/03/04 01:22:41;;;;;;;11.47;9.10;;;11.60;99.90;;;;;;5077487;28;20836;-45
2024/03/04 01:25:10;;;;;;;12.20;8.60;;;11.60;99.90;;;;;;5078432;28;20456;-44
2024/03/04 01:27:38;;;;;;;9.03;7.50;;;11.60;99.90;;;;;;5072746;28;21012;-45
2024/03/04 01:30:09;;;;;;;11.13;7.70;;;11.60;99.90;;;;;;5077607;28;20466;-45
2024/03/04 01:32:39;;;;;;;10.10;8.03;;;11.60;99.90;;;;;;5074394;28;20510;-46
2024/03/04 01:35:10;;;;;;;9.73;7.27;;;11.60;99.90;;;;;;5067026;28;20472;-45
2024/03/04 01:37:42;;;;;;;10.13;7.87;;;11.60;99.90;;;;;;5073660;28;20544;-45
2024/03/04 01:40:13;;;;;;;8.90;7.77;;;11.60;99.90;;;;;;5074580;28;20426;-46
2024/03/04 01:42:43;;;;;;;13.57;9.77;;;11.60;99.90;;;;;;5069533;28;20500;-46
2024/03/04 01:45:18;;;;;;;9.20;7.60;;;11.50;99.90;;;;;;5072954;28;20937;-46
2024/03/04 01:47:48;;;;;;;11.80;8.10;;;11.60;99.90;;;;;;5075790;28;21010;-45
2024/03/04 01:50:17;;;;;;;10.90;7.70;;;11.60;99.90;;;;;;5070618;28;20981;-46
2024/03/04 01:52:47;;;;;;;10.03;7.90;;;11.60;99.90;;;;;;5077274;28;20476;-45
2024/03/04 01:55:16;;;;;;;12.37;9.17;;;11.60;99.90;;;;;;5072942;28;20466;-45
2024/03/04 01:57:45;;;;;;;10.80;8.27;;;11.50;99.90;;;;;;5074103;28;21006;-45
2024/03/04 02:00:16;;;;;;;11.47;9.00;;;11.60;99.90;;;;;;5077121;28;20940;-46
2024/03/04 02:02:47;;;;;;;7.60;6.70;;;11.60;99.90;;;;;;5073360;28;20503;-46
2024/03/04 02:05:17;;;;;;;8.53;6.83;;;11.60;99.90;;;;;;5072222;28;20462;-45
2024/03/04 02:07:46;;;;;;;9.30;7.00;;;11.50;99.90;;;;;;5075849;28;20469;-45
2024/03/04 02:10:16;;;;;;;10.60;7.80;;;11.50;99.90;;;;;;5077013;28;20462;-45
2024/03/04 02:12:46;;;;;;;9.60;8.13;;;11.60;99.90;;;;;;5075006;28;20474;-45
2024/03/04 02:15:15;;;;;;;8.90;6.97;;;11.60;99.90;;;;;;5076214;28;20880;-45
2024/03/04 02:17:47;;;;;;;9.93;7.70;;;11.50;99.90;;;;;;5072836;28;20486;-45
2024/03/04 02:20:19;;;;;;;8.70;7.37;;;11.60;99.90;;;;;;5072285;28;20434;-45
2024/03/04 02:22:49;;;;;;;9.13;7.53;;;11.50;99.90;;;;;;5077360;28;20449;-45
2024/03/04 02:25:22;;;;;;;8.83;6.53;;;11.50;99.90;;;;;;5056598;28;20457;-45
2024/03/04 02:27:51;;;;;;;9.40;7.20;;;11.50;99.90;;;;;;5068746;28;21078;-45
2024/03/04 02:30:22;;;;;;;10.33;8.10;;;11.50;99.90;;;;;;5076672;28;20464;-45
2024/03/04 02:32:52;;;;;;;10.40;7.80;;;11.50;99.90;;;;;;5075704;28;20563;-45
2024/03/04 02:35:24;;;;;;;9.43;8.40;;;11.50;99.90;;;;;;5069893;28;20470;-46
2024/03/04 02:37:55;;;;;;;13.53;7.37;;;11.50;99.90;;;;;;5071204;28;20468;-45
2024/03/04 02:40:23;;;;;;;11.07;7.90;;;11.50;99.90;;;;;;5069936;28;20744;-44
2024/03/04 02:42:52;;;;;;;13.70;9.43;;;11.50;99.90;;;;;;5074991;28;20466;-45
2024/03/04 02:45:23;;;;;;;10.07;7.40;;;11.50;99.90;;;;;;5076740;28;20480;-45
2024/03/04 02:47:53;;;;;;;13.10;8.87;;;11.50;99.90;;;;;;5074073;28;20490;-46
2024/03/04 02:50:22;;;;;;;8.23;7.43;;;11.50;99.90;;;;;;5071761;28;20947;-46
2024/03/04 02:52:52;;;;;;;9.10;6.37;;;11.50;99.90;;;;;;5072387;28;20466;-46
2024/03/04 02:55:22;;;;;;;9.10;7.30;;;11.50;99.90;;;;;;5074948;28;20537;-46
2024/03/04 02:57:51;;;;;;;9.37;6.67;;;11.50;99.90;;;;;;5074413;28;20861;-45
2024/03/04 03:00:20;;;;;;;9.70;6.83;;;11.50;99.90;;;;;;5069891;28;20449;-46
2024/03/04 03:02:49;;;;;;;10.17;8.20;;;11.50;99.90;;;;;;5073485;28;20522;-46
2024/03/04 03:05:17;;;;;;;8.17;6.83;;;11.50;99.90;;;;;;5070788;28;20907;-47
2024/03/04 03:07:47;;;;;;;9.00;7.10;;;11.50;99.90;;;;;;5073567;28;20997;-46
2024/03/04 03:10:16;;;;;;;12.17;6.63;;;11.50;99.90;;;;;;5076177;28;20466;-45
2024/03/04 03:12:48;;;;;;;10.27;6.10;;;11.50;99.90;;;;;;5076341;28;20471;-46
2024/03/04 03:15:17;;;;;;;8.00;6.70;;;11.50;99.90;;;;;;5073206;28;20545;-46
2024/03/04 03:17:47;;;;;;;7.63;5.70;;;11.50;99.90;;;;;;5075648;28;20461;-45
2024/03/04 03:20:18;;;;;;;10.13;7.30;;;11.50;99.90;;;;;;5073364;28;20434;-44
2024/03/04 03:22:48;;;;;;;12.83;7.57;;;11.50;99.90;;;;;;5072257;28;20910;-43
2024/03/04 03:25:17;;;;;;;10.10;6.87;;;11.50;99.90;;;;;;5075776;28;20519;-46
2024/03/04 03:27:48;;;;;;;6.17;5.57;;;11.50;99.90;;;;;;5076244;28;20463;-45
2024/03/04 03:30:17;;;;;;;6.93;6.27;;;11.50;99.90;;;;;;5076593;28;20457;-46
2024/03/04 03:32:46;;;;;;;6.57;5.83;;;11.50;99.90;;;;;;5071917;28;20495;-45
2024/03/04 03:35:15;;;;;;;8.23;6.17;;;11.50;99.90;;;;;;5072533;28;20523;-46
2024/03/04 03:37:46;;;;;;;6.60;5.90;;;11.50;99.90;;;;;;5075260;28;20452;-46
2024/03/04 03:40:14;;;;;;;7.10;6.40;;;11.50;99.90;;;;;;5075917;28;20457;-46
2024/03/04 03:42:42;;;;;;;7.10;5.90;;;11.50;99.90;;;;;;5074278;28;20513;-46
2024/03/04 03:45:12;;;;;;;6.73;5.20;;;11.50;99.90;;;;;;5076515;28;20449;-46
2024/03/04 03:47:41;;;;;;;7.80;6.60;;;11.50;99.90;;;;;;5076026;28;20908;-45
2024/03/04 03:50:10;;;;;;;5.73;5.10;;;11.50;99.90;;;;;;5074116;28;21011;-45
2024/03/04 03:52:41;;;;;;;8.10;6.13;;;11.50;99.90;;;;;;5078520;28;20459;-46
2024/03/04 03:55:11;;;;;;;5.50;4.90;;;11.50;99.90;;;;;;5141251;22;20487;-46
2024/03/04 03:57:39;;;;;;;7.27;5.53;;;11.50;99.90;;;;;;5069238;28;20547;-47
2024/03/04 04:00:27;;;;;;;7.60;5.63;;;11.50;99.90;;;;;;5073880;28;20426;-51
2024/03/04 04:03:00;;;;;;;5.83;5.20;;;11.50;99.90;;;;;;5061458;28;20556;-46
2024/03/04 04:05:29;;;;;;;7.80;6.17;;;11.50;99.90;;;;;;5067816;28;20469;-46
2024/03/04 04:08:00;;;;;;;7.33;5.13;;;11.50;99.90;;;;;;5050032;28;20455;-48
2024/03/04 04:10:32;;;;;;;6.73;5.37;;;11.50;99.90;;;;;;5073371;28;20469;-49
2024/03/04 04:13:02;;;;;;;6.00;5.10;;;11.50;99.90;;;;;;5071153;28;20835;-47
2024/03/04 04:15:32;;;;;;;5.27;4.73;;;11.40;99.90;;;;;;5073030;28;20555;-48
2024/03/04 04:18:02;;;;;;;5.70;4.90;;;11.50;99.90;;;;;;5066644;28;20457;-47
2024/03/04 04:20:31;;;;;;;6.77;5.47;;;11.50;99.90;;;;;;5069805;28;20999;-50
2024/03/04 04:23:02;;;;;;;5.77;4.90;;;11.40;99.90;;;;;;5072860;28;20983;-48
2024/03/04 04:25:32;;;;;;;4.70;4.20;;;11.50;99.90;;;;;;5073290;28;20442;-47
2024/03/04 04:28:02;;;;;;;5.47;4.63;;;11.50;99.90;;;;;;5067883;28;20568;-49
2024/03/04 04:30:36;;;;;;;7.40;5.37;;;11.50;99.90;;;;;;5056154;28;20459;-48
2024/03/04 04:33:05;;;;;;;6.37;5.53;;;11.50;99.90;;;;;;5068482;28;20471;-46
2024/03/04 04:35:33;;;;;;;6.07;5.17;;;11.50;99.90;;;;;;5067945;28;20877;-46
2024/03/04 04:38:02;;;;;;;5.30;4.27;;;11.50;99.90;;;;;;5072470;28;20429;-47
2024/03/04 04:40:33;;;;;;;6.63;4.80;;;11.50;99.90;;;;;;5072766;28;20633;-50
2024/03/04 04:43:02;;;;;;;6.53;5.87;;;11.40;99.90;;;;;;5070657;28;20959;-46
2024/03/04 04:45:31;;;;;;;5.53;4.70;;;11.50;99.90;;;;;;5069943;28;20476;-48
2024/03/04 04:48:04;;;;;;;5.07;4.57;;;11.40;99.90;;;;;;5065052;28;20527;-46
2024/03/04 04:50:32;;;;;;;5.87;4.20;;;11.40;99.90;;;;;;5066117;28;20534;-49
2024/03/04 04:53:02;;;;;;;4.40;4.00;;;11.50;99.90;;;;;;5069445;28;20476;-48
2024/03/04 04:55:32;;;;;;;6.20;4.60;;;11.40;99.90;;;;;;5069365;28;20487;-49
2024/03/04 04:58:03;;;;;;;5.30;4.80;;;11.50;99.90;;;;;;5071721;28;20457;-45
2024/03/04 05:00:32;;;;;;;6.83;5.30;;;11.40;99.90;;;;;;5066972;28;20442;-48
2024/03/04 05:03:03;;;;;;;5.27;4.77;;;11.40;99.90;;;;;;5066656;28;20502;-49
2024/03/04 05:05:32;;;;;;;5.20;4.70;;;11.40;99.90;;;;;;5062843;28;20473;-48
2024/03/04 05:08:02;;;;;;;5.90;4.40;;;11.40;99.90;;;;;;5072175;28;20438;-48
2024/03/04 05:10:31;;;;;;;4.73;4.27;;;11.40;99.90;;;;;;5072800;28;20445;-48
2024/03/04 05:13:02;;;;;;;4.60;3.90;;;11.40;99.90;;;;;;5067074;28;20461;-47
2024/03/04 05:15:30;;;;;;;6.43;4.87;;;11.40;99.90;;;;;;5066416;28;20560;-48
2024/03/04 05:17:59;;;;;;;5.50;4.70;;;11.40;99.90;;;;;;5065175;28;20436;-47
2024/03/04 05:20:33;;;;;;;4.73;4.33;;;11.40;99.90;;;;;;5067721;28;20458;-48
2024/03/04 05:23:22;;;;;;;5.07;4.57;;;11.40;99.90;;;;;;5069219;28;20460;-47
2024/03/04 05:25:53;;;;;;;5.80;4.60;;;11.40;99.90;;;;;;5068601;28;20484;-49
2024/03/04 05:28:23;;;;;;;6.10;4.57;;;11.40;99.90;;;;;;5066648;28;20446;-45
2024/03/04 05:30:54;;;;;;;5.17;4.67;;;11.40;99.90;;;;;;5069491;28;20499;-50
2024/03/04 05:33:23;;;;;;;5.77;5.20;;;11.40;99.90;;;;;;5068891;28;20503;-49
2024/03/04 05:35:54;;;;;;;6.50;5.80;;;11.40;99.90;;;;;;5064922;28;20503;-47
2024/03/04 05:38:25;;;;;;;7.63;4.90;;;11.40;99.90;;;;;;5054354;28;20436;-46
2024/03/04 05:40:55;;;;;;;4.50;4.00;;;11.40;99.90;;;;;;5071047;28;20530;-46
2024/03/04 05:43:24;;;;;;;4.83;4.33;;;11.40;99.90;;;;;;5069573;28;20436;-50
2024/03/04 05:45:55;;;;;;;5.63;4.97;;;11.40;99.90;;;;;;5067915;28;20472;-51
2024/03/04 05:48:26;;;;;;;6.40;4.60;;;11.40;99.90;;;;;;5068746;28;20445;-46
2024/03/04 05:50:56;;;;;;;4.60;4.20;;;11.40;99.90;;;;;;5062617;28;20537;-46
2024/03/04 05:53:26;;;;;;;5.70;4.23;;;11.40;99.90;;;;;;5070005;28;20958;-46
2024/03/04 05:55:55;;;;;;;4.40;3.90;;;11.40;99.90;;;;;;5070448;28;20536;-45
2024/03/04 05:58:26;;;;;;;4.90;4.30;;;11.40;99.90;;;;;;5068793;28;21016;-47
2024/03/04 06:00:56;;;;;;;4.43;4.03;;;11.40;99.90;;;;;;5070931;28;20437;-46
2024/03/04 06:03:25;;;;;;;4.70;4.10;;;11.40;99.90;;;;;;5070789;28;20428;-48
2024/03/04 06:05:56;;;;;;;5.17;4.50;;;11.40;99.90;;;;;;5064396;28;20873;-47
2024/03/04 06:08:24;;;;;;;4.50;4.10;;;11.40;99.90;;;;;;5068443;28;20460;-47
2024/03/04 06:10:55;;;;;;;4.60;4.10;;;11.40;99.90;;;;;;5070320;28;20972;-46
2024/03/04 06:13:26;;;;;;;5.07;4.17;;;11.30;99.90;;;;;;5064200;28;20469;-45
2024/03/04 06:15:55;;;;;;;4.90;4.40;;;11.30;99.90;;;;;;5069438;28;20461;-46
2024/03/04 06:18:24;;;;;;;7.60;5.10;;;11.40;99.90;;;;;;5070243;28;20981;-46
2024/03/04 06:20:53;;;;;;;5.00;4.37;;;11.30;99.90;;;;;;5064388;28;20449;-47
2024/03/04 06:23:22;;;;;;;5.27;4.63;;;11.40;99.90;;;;;;5070892;28;20447;-43
2024/03/04 06:25:52;;;;;;;5.53;3.80;;;11.30;99.90;;;;;;5069403;28;20473;-47
2024/03/04 06:28:23;;;;;;;5.13;4.20;;;11.30;99.90;;;;;;5063437;28;20477;-47
2024/03/04 06:30:52;;;;;;;5.23;4.57;;;11.30;99.90;;;;;;5053025;28;20801;-46
2024/03/04 06:33:21;;;;;;;4.87;4.10;;;11.30;99.90;;;;;;5069385;28;20526;-46
2024/03/04 06:35:54;;;;;;;4.90;4.40;;;11.30;99.90;;;;;;5066109;28;20460;-45
2024/03/04 06:38:27;;;;;;;6.23;4.90;;;11.30;99.90;;;;;;5069827;28;20437;-51
2024/03/04 06:40:57;;;;;;;5.73;4.57;;;11.30;99.90;;;;;;5064217;28;20857;-47
2024/03/04 06:43:26;;;;;;;4.90;4.23;;;11.30;99.90;;;;;;5069791;28;20479;-46
2024/03/04 06:45:57;;;;;;;4.90;4.10;;;11.30;99.90;;;;;;5069484;28;20456;-46
2024/03/04 06:48:27;;;;;;;5.63;4.60;;;11.30;99.90;;;;;;5068998;28;20459;-45
2024/03/04 06:50:56;;;;;;;4.20;3.70;;;11.30;99.90;;;;;;5065068;28;20849;-46
2024/03/04 06:53:27;;;;;;;6.43;4.53;;;11.30;99.90;;;;;;5070107;28;20465;-46
2024/03/04 06:55:57;;;;;;;5.20;4.43;;;11.30;99.90;;;;;;5070120;28;20914;-46
2024/03/04 06:58:26;;;;;;;4.57;3.97;;;11.30;99.90;;;;;;5070519;28;20519;-45
2024/03/04 07:00:56;;;;;;;5.33;4.17;;;11.30;99.90;;;;;;5064238;28;20525;-45
2024/03/04 07:03:26;;;;;;;3.90;3.47;;;11.30;99.90;;;;;;5070745;28;20479;-46
2024/03/04 07:05:56;;;;;;;4.30;3.90;;;11.30;99.90;;;;;;5062238;28;20544;-46
2024/03/04 07:08:26;;;;;;;5.70;4.20;;;11.30;99.90;;;;;;5069719;28;20908;-47
2024/03/04 07:10:57;;;;;;;4.40;4.00;;;11.30;99.90;;;;;;5064511;28;20470;-48
2024/03/04 07:13:27;;;;;;;4.80;3.60;;;11.30;99.90;;;;;;5062978;28;20469;-46
2024/03/04 07:15:56;;;;;;;4.87;4.07;;;11.30;99.90;;;;;;5069965;28;20530;-46
2024/03/04 07:18:31;;;;;;;4.53;3.33;;;11.30;99.90;;;;;;5072894;28;20443;-48
2024/03/04 07:21:03;;;;;;;4.87;3.80;;;11.30;99.90;;;;;;5066127;28;20899;-46
2024/03/04 07:23:33;;;;;;;4.33;3.93;;;11.30;99.90;;;;;;5072431;28;20468;-47
2024/03/04 07:26:06;;;;;;;5.73;3.70;;;11.30;99.90;;;;;;5068238;28;20886;-46
2024/03/04 07:28:36;;;;;;;4.83;4.33;;;11.30;99.90;;;;;;5066921;28;20451;-48
2024/03/04 07:31:06;;;;;;;3.80;3.40;;;11.20;99.90;;;;;;5069365;28;20472;-48
2024/03/04 07:33:37;;;;;;;3.83;3.27;;;11.30;99.90;;;;;;5070548;28;20471;-47
2024/03/04 07:36:09;;;;;;;3.63;3.23;;;11.30;99.90;;;;;;5068096;28;20537;-46
2024/03/04 07:38:43;;;;;;;4.73;4.00;;;11.30;99.90;;;;;;5073674;28;20423;-48
2024/03/04 07:41:11;;;;;;;3.83;3.43;;;11.30;99.90;;;;;;5070050;28;20463;-47
2024/03/04 07:43:40;;;;;;;3.90;3.50;;;11.30;99.90;;;;;;5068109;28;20432;-46
2024/03/04 07:46:09;;;;;;;3.40;3.00;;;11.30;99.90;;;;;;5072739;28;20479;-46
2024/03/04 07:48:37;;;;;;;5.60;3.63;;;11.30;99.90;;;;;;5070666;28;20449;-48
2024/03/04 07:51:10;;;;;;;4.80;4.23;;;11.30;99.90;;;;;;5067327;28;20449;-47
2024/03/04 07:53:38;;;;;;;3.90;3.43;;;11.30;99.90;;;;;;5073214;28;20468;-48
2024/03/04 07:56:10;;;;;;;4.90;3.70;;;11.30;99.90;;;;;;5067585;28;20479;-48
2024/03/04 07:58:38;;;;;;;4.53;3.37;;;11.20;99.90;;;;;;5068477;28;21031;-46
2024/03/04 08:01:06;;;;;;;3.80;3.23;;;11.20;99.90;;;;;;5070131;28;20456;-49
2024/03/04 08:03:36;;;;;;;4.10;3.37;;;11.30;99.90;;;;;;5071924;28;20436;-49
2024/03/04 08:06:05;;;;;;;5.47;3.63;;;11.30;99.90;;;;;;5066424;28;20464;-47
2024/03/04 08:08:35;;;;;;;3.77;2.73;;;11.20;99.90;;;;;;5072570;28;20445;-46
2024/03/04 08:11:04;;;;;;;4.70;3.73;;;11.30;99.90;;;;;;5069533;28;20453;-45
2024/03/04 08:13:33;;;;;;;3.70;3.40;;;11.20;99.90;;;;;;5066770;28;20476;-50
2024/03/04 08:16:03;;;;;;;4.17;3.27;;;11.30;99.90;;;;;;5072139;28;20549;-46
2024/03/04 08:18:31;;;;;;;4.20;3.07;;;11.30;99.90;;;;;;5071690;28;20430;-46
2024/03/04 08:20:59;;;;;;;3.70;2.87;;;11.30;99.90;;;;;;5066525;28;20503;-46
2024/03/04 08:23:27;;;;;;;4.00;2.97;;;11.20;99.90;;;;;;5071808;28;20436;-45
2024/03/04 08:25:56;;;;;;;5.60;3.23;;;11.20;99.90;;;;;;5072029;28;20465;-47
2024/03/04 08:28:25;;;;;;;5.20;3.13;;;11.20;99.90;;;;;;5055371;28;20436;-47
2024/03/04 08:31:06;;;;;;;3.90;3.57;;;11.20;99.90;;;;;;5066367;28;20461;-45
2024/03/04 08:33:37;;;;;;;4.37;3.57;;;11.20;99.90;;;;;;5071506;28;20461;-46
2024/03/04 08:36:07;;;;;;;6.43;3.50;;;11.20;99.90;;;;;;5067688;28;20487;-48
2024/03/04 08:38:38;;;;;;;6.40;3.80;;;11.20;99.90;;;;;;5069870;28;20857;-46
2024/03/04 08:41:06;;;;;;;4.23;3.40;;;11.20;99.90;;;;;;5073077;28;20464;-48
2024/03/04 08:43:36;;;;;;;4.50;3.60;;;11.20;99.90;;;;;;5072400;28;20421;-47
2024/03/04 08:46:10;;;;;;;5.23;3.57;;;11.20;99.90;;;;;;5055289;28;20529;-46
2024/03/04 08:48:39;;;;;;;4.73;4.23;;;11.20;99.90;;;;;;5066283;28;20461;-46
2024/03/04 08:51:08;;;;;;;4.20;3.70;;;11.20;99.90;;;;;;5067583;28;20460;-44
2024/03/04 08:53:36;;;;;;;4.60;3.23;;;11.20;99.90;;;;;;5071674;28;20525;-44
2024/03/04 08:56:06;;;;;;;4.40;2.60;;;11.20;99.90;;;;;;5068324;28;20470;-44
2024/03/04 08:58:34;;;;;;;4.13;3.73;;;11.20;99.90;;;;;;5067550;28;20458;-45
2024/03/04 09:01:03;;;;;;;4.30;3.83;;;11.20;99.90;;;;;;5066758;28;20464;-44
2024/03/04 09:03:33;;;;;;;4.10;3.27;;;11.20;99.90;;;;;;5068915;28;20437;-44
2024/03/04 09:06:01;;;;;;;6.63;5.17;;;11.20;99.90;;;;;;5058790;28;20461;-45
2024/03/04 09:08:30;;;;;;;6.77;5.47;;;11.20;99.90;;;;;;5071422;28;20502;-44
2024/03/04 09:11:02;;;;;;;9.23;7.50;;;11.20;99.90;;;;;;5063545;28;20459;-44
2024/03/04 09:13:31;;;;;;;9.03;6.97;;;11.10;99.90;;;;;;5071128;28;20488;-44
2024/03/04 09:16:04;;;;;;;8.47;6.43;;;11.10;99.90;;;;;;5070460;28;20457;-44
2024/03/04 09:18:35;;;;;;;7.30;5.40;;;11.10;99.90;;;;;;5066128;28;20809;-46
2024/03/04 09:21:04;;;;;;;7.53;5.87;;;11.10;99.90;;;;;;5060400;28;20982;-45
2024/03/04 09:23:32;;;;;;;7.23;5.33;;;11.10;99.90;;;;;;5067379;28;20439;-44
2024/03/04 09:26:01;;;;;;;5.07;4.40;;;11.10;99.90;;;;;;5063897;28;20461;-44
2024/03/04 09:28:32;;;;;;;6.30;5.43;;;11.10;99.90;;;;;;5050382;28;20445;-45
2024/03/04 09:31:03;;;;;;;6.23;4.63;;;11.10;99.90;;;;;;5070262;28;20454;-45
2024/03/04 09:33:33;;;;;;;6.67;5.23;;;11.10;99.90;;;;;;5067354;28;20533;-45
2024/03/04 09:36:02;;;;;;;11.10;4.73;;;11.10;99.90;;;;;;5052226;28;20829;-44
2024/03/04 09:38:32;;;;;;;7.07;5.30;;;11.10;99.90;;;;;;5069646;28;20489;-45
2024/03/04 09:41:02;;;;;;;6.77;4.97;;;11.10;99.90;;;;;;5070552;28;20448;-45
2024/03/04 09:43:33;;;;;;;5.53;4.50;;;11.10;99.90;;;;;;5069580;28;20466;-45
2024/03/04 09:46:01;;;;;;;6.47;3.83;;;11.10;99.90;;;;;;5062194;28;20471;-46
2024/03/04 09:48:32;;;;;;;5.30;4.80;;;11.10;99.90;;;;;;5067042;28;20441;-44
2024/03/04 09:51:03;;;;;;;5.13;4.10;;;11.10;99.90;;;;;;5062597;28;20803;-45
2024/03/04 09:53:35;;;;;;;9.73;4.83;;;11.10;99.90;;;;;;5063350;28;20476;-45
2024/03/04 09:56:04;;;;;;;5.23;3.70;;;11.10;99.90;;;;;;5065069;28;20534;-44
2024/03/04 09:58:33;;;;;;;4.53;3.97;;;11.10;99.90;;;;;;5069231;28;20529;-45
2024/03/04 10:01:04;;;;;;;5.20;4.40;;;11.10;99.90;;;;;;5071522;28;20547;-44
2024/03/04 10:03:35;;;;;;;5.77;3.53;;;11.10;99.90;;;;;;5066799;28;20444;-45
2024/03/04 10:06:05;;;;;;;6.97;4.50;;;11.10;99.90;;;;;;5063082;28;20640;-44
2024/03/04 10:08:33;;;;;;;7.97;3.67;;;11.10;99.90;;;;;;5071077;28;20435;-45
2024/03/04 10:11:01;;;;;;;5.57;4.60;;;11.10;99.90;;;;;;5070405;28;20462;-44
2024/03/04 10:13:31;;;;;;;4.93;4.43;;;11.10;99.90;;;;;;5070181;28;20436;-44
2024/03/04 10:16:02;;;;;;;4.37;3.10;;;11.10;99.90;;;;;;5064602;28;20490;-45
2024/03/04 10:18:31;;;;;;;4.27;3.80;;;11.10;99.90;;;;;;5065807;28;20530;-44
2024/03/04 10:21:04;;;;;;;7.23;5.10;;;11.10;99.90;;;;;;5064654;28;20475;-45
2024/03/04 10:23:32;;;;;;;5.20;4.70;;;11.10;99.90;;;;;;5069109;28;20448;-45
2024/03/04 10:26:07;;;;;;;8.20;4.13;;;11.10;99.90;;;;;;5067928;28;20532;-46
2024/03/04 10:28:39;;;;;;;4.47;3.50;;;11.10;99.90;;;;;;5068370;28;20535;-45
2024/03/04 10:31:10;;;;;;;6.47;3.63;;;11.10;99.90;;;;;;5068916;28;20834;-45
2024/03/04 10:33:38;;;;;;;6.23;4.33;;;11.10;99.90;;;;;;5069414;28;20441;-44
2024/03/04 10:36:21;;;;;;;4.60;3.80;;;11.10;99.90;;;;;;5064254;28;20470;-44
2024/03/04 10:38:52;;;;;;;3.80;3.33;;;11.10;99.90;;;;;;5069176;28;20440;-44
2024/03/04 10:41:23;;;;;;;4.30;3.50;;;11.10;99.90;;;;;;5070172;28;21043;-44
2024/03/04 10:43:52;;;;;;;4.50;3.80;;;11.10;99.90;;;;;;5063461;28;20434;-44
2024/03/04 10:46:22;;;;;;;5.20;3.70;;;11.10;99.90;;;;;;5051922;28;20742;-45
2024/03/04 10:48:53;;;;;;;4.80;3.50;;;11.10;99.90;;;;;;5065407;28;20473;-45
2024/03/04 10:51:23;;;;;;;3.57;2.70;;;11.10;99.90;;;;;;5066800;28;20512;-45
2024/03/04 10:53:54;;;;;;;4.67;3.40;;;11.10;99.90;;;;;;5052709;28;20545;-44
2024/03/04 10:56:23;;;;;;;3.53;2.73;;;11.10;99.90;;;;;;5070560;28;20461;-44
2024/03/04 10:58:56;;;;;;;4.20;2.77;;;11.10;99.90;;;;;;5068218;28;20487;-44
2024/03/04 11:01:29;;;;;;;4.50;3.73;;;11.10;99.90;;;;;;5067408;28;20492;-45
2024/03/04 11:04:04;;;;;;;3.77;2.97;;;11.10;99.90;;;;;;5061026;28;20432;-45
2024/03/04 11:06:38;;;;;;;3.87;2.80;;;11.10;99.90;;;;;;5066696;28;20490;-46
2024/03/04 11:09:10;;;;;;;4.93;2.97;;;11.10;99.90;;;;;;5068913;28;20445;-44
2024/03/04 11:11:47;;;;;;;4.27;2.83;;;11.10;99.90;;;;;;5070129;28;20470;-45
2024/03/04 11:14:23;;;;;;;3.90;2.87;;;11.10;99.90;;;;;;5066444;28;20463;-45
2024/03/04 11:17:00;;;;;;;3.80;3.10;;;11.10;99.90;;;;;;5069260;28;20812;-44
2024/03/04 11:19:38;;;;;;;5.23;3.50;;;11.10;99.90;;;;;;5063090;28;20994;-45
2024/03/04 11:22:14;;;;;;;3.50;3.03;;;11.10;99.90;;;;;;5061459;28;20544;-45
2024/03/04 11:24:42;;;;;;;3.80;2.30;;;11.10;99.90;;;;;;5066860;28;20449;-45
2024/03/04 11:27:12;;;;;;;4.83;3.43;;;11.10;99.90;;;;;;5068156;28;20454;-45
2024/03/04 11:29:42;;;;;;;3.67;3.30;;;11.10;99.90;;;;;;5067759;28;20942;-45
2024/03/04 11:32:11;;;;;;;4.77;3.77;;;11.10;99.90;;;;;;5069203;28;20455;-45
2024/03/04 11:35:00;;;;;;;3.80;3.30;;;11.10;99.90;;;;;;5056984;28;20497;-45
2024/03/04 11:37:31;;;;;;;5.20;2.40;;;11.10;99.90;;;;;;5065344;28;20497;-44
2024/03/04 11:40:01;;;;;;;3.27;2.30;;;11.10;99.90;;;;;;5063766;28;20443;-44
2024/03/04 11:42:34;;;;;;;5.10;2.77;;;11.10;99.90;;;;;;5052109;28;21035;-44
2024/03/04 11:45:07;;;;;;;5.93;3.30;;;11.10;99.90;;;;;;5064030;28;20456;-44
2024/03/04 11:47:37;;;;;;;3.33;3.00;;;11.10;99.90;;;;;;5069731;28;20482;-45
2024/03/04 11:50:08;;;;;;;3.37;3.07;;;11.10;99.90;;;;;;5060507;28;20469;-45
2024/03/04 11:52:38;;;;;;;3.90;3.23;;;11.10;99.90;;;;;;5066971;28;20491;-44
2024/03/04 11:55:09;;;;;;;4.53;2.83;;;11.10;99.90;;;;;;5069420;28;20555;-44
2024/03/04 11:57:37;;;;;;;4.33;3.27;;;11.10;99.90;;;;;;5068372;28;20879;-45
2024/03/04 12:00:09;;;;;;;4.50;2.90;;;11.10;99.90;;;;;;5064398;28;20499;-45
2024/03/04 12:02:38;;;;;;;2.80;2.03;;;11.10;99.90;;;;;;5068185;28;21047;-45
2024/03/04 12:05:10;;;;;;;3.17;2.83;;;11.10;99.90;;;;;;5069432;28;20536;-44
2024/03/04 12:07:41;;;;;;;4.03;2.60;;;11.10;99.90;;;;;;5073226;28;20511;-45
2024/03/04 12:10:10;;;;;;;3.20;2.33;;;11.10;99.90;;;;;;5073574;28;20431;-44
2024/03/04 12:12:44;;;;;;;2.93;2.40;;;11.10;99.90;;;;;;5064692;28;20477;-45
2024/03/04 12:15:15;;;;;;;2.87;2.47;;;11.10;99.90;;;;;;5067867;28;20477;-44
2024/03/04 12:17:47;;;;;;;2.57;2.00;;;11.10;99.90;;;;;;5072670;28;20465;-45
2024/03/04 12:20:15;;;;;;;2.97;2.53;;;11.10;99.90;;;;;;5049100;28;20439;-44
2024/03/04 12:22:46;;;;;;;3.10;2.20;;;11.10;99.90;;;;;;5065264;28;20473;-45
2024/03/04 12:25:17;;;;;;;4.00;3.17;;;11.10;99.90;;;;;;5065296;28;20453;-45
2024/03/04 12:27:53;;;;;;;3.73;2.50;;;11.10;99.90;;;;;;5071177;28;20469;-44
2024/03/04 12:30:23;;;;;;;3.70;3.03;;;11.10;99.90;;;;;;5071854;28;20943;-45
2024/03/04 12:32:53;;;;;;;3.93;2.83;;;11.10;99.90;;;;;;5062549;28;20477;-45
2024/03/04 12:35:27;;;;;;;2.07;1.87;;;11.10;99.90;;;;;;5070237;28;20546;-46
2024/03/04 12:37:59;;;;;;;2.60;1.80;;;11.10;99.90;;;;;;5072710;28;20476;-45
2024/03/04 12:40:28;;;;;;;3.93;2.73;;;11.10;99.90;;;;;;5071810;28;20784;-44
2024/03/04 12:42:58;;;;;;;2.77;2.30;;;11.10;99.90;;;;;;5060259;28;20515;-45
2024/03/04 12:45:27;;;;;;;3.27;2.60;;;11.10;99.90;;;;;;5073447;28;20524;-44
2024/03/04 12:47:58;;;;;;;3.47;2.70;;;11.10;99.90;;;;;;5071876;28;20871;-45
2024/03/04 12:50:27;;;;;;;4.60;2.90;;;11.10;99.90;;;;;;5067653;28;20501;-44
2024/03/04 12:52:59;;;;;;;5.80;2.97;;;11.10;99.90;;;;;;5072725;28;20477;-44
2024/03/04 12:55:28;;;;;;;2.83;2.53;;;11.10;99.90;;;;;;5071702;28;20493;-45
2024/03/04 12:57:57;;;;;;;2.90;2.60;;;11.10;99.90;;;;;;5065606;28;20551;-44
2024/03/04 13:00:27;;;;;;;2.60;2.13;;;11.10;99.90;;;;;;5073034;28;20439;-44